createdAt,value
2019-05-03T00:02:28.464Z,6.30
2019-05-03T00:05:22.838Z,6.83
2019-05-03T00:07:53.054Z,7.13
2019-05-03T00:10:22.338Z,6.37
2019-05-03T00:12:52.742Z,7.37
2019-05-03T00:15:37.825Z,6.77
2019-05-03T00:18:06.778Z,6.40
2019-05-03T00:20:35.898Z,6.67
2019-05-03T00:23:04.855Z,6.67
2019-05-03T00:25:33.366Z,7.70
2019-05-03T00:28:01.952Z,6.77
2019-05-03T00:30:31.983Z,6.77
2019-05-03T00:33:02.826Z,7.20
2019-05-03T00:35:42.440Z,7.03
2019-05-03T00:38:13.052Z,7.33
2019-05-03T00:40:41.702Z,7.80
2019-05-03T00:43:11.606Z,8.17
2019-05-03T00:45:42.138Z,8.50
2019-05-03T00:48:10.095Z,7.50
2019-05-03T00:50:38.417Z,7.73
2019-05-03T00:53:08.026Z,7.57
2019-05-03T00:55:36.950Z,7.87
2019-05-03T00:58:05.719Z,7.07
2019-05-03T01:00:34.046Z,7.13
2019-05-03T01:03:02.429Z,7.17
2019-05-03T01:05:32.971Z,7.20
2019-05-03T01:08:01.930Z,7.63
2019-05-03T01:10:33.053Z,7.70
2019-05-03T01:13:01.827Z,8.23
2019-05-03T01:15:42.325Z,6.77
2019-05-03T01:18:12.383Z,6.70
2019-05-03T01:20:42.692Z,6.90
2019-05-03T01:23:12.463Z,6.97
2019-05-03T01:25:42.764Z,7.07
2019-05-03T01:28:12.219Z,7.00
2019-05-03T01:30:42.513Z,6.77
2019-05-03T01:33:12.122Z,6.80
2019-05-03T01:35:42.656Z,6.60
2019-05-03T01:38:11.742Z,6.47
2019-05-03T01:40:41.934Z,6.47
2019-05-03T01:43:11.716Z,6.37
2019-05-03T01:45:42.347Z,6.30
2019-05-03T01:48:21.694Z,7.00
2019-05-03T01:51:12.826Z,6.43
2019-05-03T01:53:42.337Z,6.27
2019-05-03T01:56:11.863Z,7.43
2019-05-03T01:58:41.726Z,7.53
2019-05-03T02:01:32.726Z,6.93
2019-05-03T02:04:12.264Z,7.67
2019-05-03T02:06:42.506Z,7.17
2019-05-03T02:09:12.205Z,6.73
2019-05-03T02:11:42.160Z,7.27
2019-05-03T02:14:12.375Z,7.67
2019-05-03T02:16:42.032Z,7.07
2019-05-03T02:19:12.516Z,7.33
2019-05-03T02:21:41.740Z,7.07
2019-05-03T02:24:11.805Z,7.10
2019-05-03T02:26:42.332Z,7.90
2019-05-03T02:29:12.618Z,7.10
2019-05-03T02:31:43.657Z,7.43
2019-05-03T02:34:12.575Z,7.87
2019-05-03T02:36:42.770Z,7.80
2019-05-03T02:39:13.894Z,7.67
2019-05-03T02:41:47.884Z,8.27
2019-05-03T02:44:15.591Z,7.90
2019-05-03T02:47:06.574Z,8.00
2019-05-03T02:49:42.057Z,8.10
2019-05-03T02:52:30.090Z,8.60
2019-05-03T02:54:58.759Z,8.57
2019-05-03T02:57:27.578Z,8.73
2019-05-03T02:59:55.896Z,8.83
2019-05-03T03:02:26.389Z,9.00
2019-05-03T03:04:56.357Z,9.30
2019-05-03T03:07:26.625Z,8.60
2019-05-03T03:09:55.964Z,9.07
2019-05-03T03:12:25.855Z,9.67
2019-05-03T03:14:55.883Z,8.60
2019-05-03T03:17:25.843Z,8.63
2019-05-03T03:19:56.296Z,8.07
2019-05-03T03:22:25.949Z,7.27
2019-05-03T03:24:56.200Z,7.47
2019-05-03T03:27:25.878Z,7.37
2019-05-03T03:30:00.228Z,7.17
2019-05-03T03:32:31.444Z,7.37
2019-05-03T03:35:29.721Z,7.77
2019-05-03T03:37:56.062Z,7.17
2019-05-03T03:40:25.608Z,7.20
2019-05-03T03:42:56.021Z,7.40
2019-05-03T03:45:25.418Z,7.07
2019-05-03T03:47:56.369Z,7.50
2019-05-03T03:50:26.108Z,6.93
2019-05-03T03:52:55.949Z,7.97
2019-05-03T03:55:26.331Z,7.40
2019-05-03T03:57:55.809Z,6.93
2019-05-03T04:00:25.769Z,7.37
2019-05-03T04:02:55.242Z,7.30
2019-05-03T04:05:25.385Z,7.30
2019-05-03T04:07:56.062Z,7.60
2019-05-03T04:10:26.112Z,7.90
2019-05-03T04:12:55.928Z,7.30
2019-05-03T04:15:45.394Z,7.53
2019-05-03T04:18:38.850Z,7.77
2019-05-03T04:21:07.871Z,7.47
2019-05-03T04:23:36.298Z,6.90
2019-05-03T04:26:07.018Z,7.17
2019-05-03T04:28:36.166Z,8.37
2019-05-03T04:31:06.214Z,7.60
2019-05-03T04:33:35.868Z,7.33
2019-05-03T04:36:05.383Z,7.67
2019-05-03T04:38:35.444Z,8.47
2019-05-03T04:41:05.914Z,8.80
2019-05-03T04:43:35.676Z,8.00
2019-05-03T04:46:25.833Z,9.40
2019-05-03T04:48:56.062Z,9.33
2019-05-03T04:51:25.949Z,8.67
2019-05-03T04:54:16.106Z,8.23
2019-05-03T04:56:46.162Z,7.93
2019-05-03T04:59:15.946Z,7.33
2019-05-03T05:01:45.882Z,7.57
2019-05-03T05:04:15.899Z,8.53
2019-05-03T05:06:45.086Z,8.33
2019-05-03T05:09:15.558Z,8.33
2019-05-03T05:11:45.888Z,8.43
2019-05-03T05:14:15.502Z,8.07
2019-05-03T05:16:46.594Z,8.53
2019-05-03T05:19:17.075Z,8.60
2019-05-03T05:21:49.279Z,8.17
2019-05-03T05:24:18.330Z,8.07
2019-05-03T05:27:02.518Z,8.40
2019-05-03T05:29:32.174Z,8.77
2019-05-03T05:32:00.827Z,8.60
2019-05-03T05:34:29.474Z,8.27
2019-05-03T05:36:58.400Z,8.57
2019-05-03T05:39:27.146Z,8.10
2019-05-03T05:41:55.770Z,9.00
2019-05-03T05:44:24.896Z,8.50
2019-05-03T05:47:16.031Z,8.80
2019-05-03T05:50:09.842Z,8.67
2019-05-03T05:52:38.157Z,7.87
2019-05-03T05:55:25.304Z,7.87
2019-05-03T05:58:08.144Z,8.03
2019-05-03T06:00:41.226Z,8.00
2019-05-03T06:03:10.006Z,7.80
2019-05-03T06:05:38.735Z,8.40
2019-05-03T06:08:38.538Z,8.30
2019-05-03T06:11:27.277Z,7.37
2019-05-03T06:14:02.191Z,7.53
2019-05-03T06:16:42.829Z,7.10
2019-05-03T06:19:34.547Z,7.13
2019-05-03T06:22:34.602Z,6.83
2019-05-03T06:25:08.935Z,7.10
2019-05-03T06:27:38.714Z,7.47
2019-05-03T06:30:35.048Z,7.10
2019-05-03T06:33:05.279Z,8.97
2019-05-03T06:35:34.585Z,6.40
2019-05-03T06:38:04.900Z,7.30
2019-05-03T06:40:35.383Z,5.97
2019-05-03T06:43:09.789Z,6.23
2019-05-03T06:45:35.353Z,6.93
2019-05-03T06:48:05.432Z,6.13
2019-05-03T06:50:34.825Z,6.13
2019-05-03T06:53:05.953Z,6.50
2019-05-03T06:55:35.111Z,6.63
2019-05-03T06:58:05.120Z,6.27
2019-05-03T07:00:52.474Z,5.90
2019-05-03T07:03:45.778Z,5.70
2019-05-03T07:06:40.481Z,5.47
2019-05-03T07:09:32.103Z,6.00
2019-05-03T07:12:00.757Z,4.93
2019-05-03T07:14:29.675Z,4.40
2019-05-03T07:16:58.422Z,5.60
2019-05-03T07:19:27.255Z,5.20
2019-05-03T07:21:56.402Z,4.93
2019-05-03T07:24:25.114Z,5.03
2019-05-03T07:26:55.140Z,4.40
2019-05-03T07:29:25.483Z,3.77
2019-05-03T07:31:55.137Z,3.50
2019-05-03T07:34:24.755Z,2.93
2019-05-03T07:36:55.534Z,3.27
2019-05-03T07:39:24.672Z,2.80
2019-05-03T07:41:55.069Z,3.10
2019-05-03T07:44:25.506Z,2.80
2019-05-03T07:46:55.499Z,2.77
2019-05-03T07:49:24.952Z,2.40
2019-05-03T07:51:55.317Z,3.07
2019-05-03T07:54:24.891Z,3.20
2019-05-03T07:56:58.627Z,2.50
2019-05-03T07:59:27.248Z,2.70
2019-05-03T08:01:57.026Z,2.97
2019-05-03T08:04:25.994Z,3.30
2019-05-03T08:06:55.005Z,2.80
2019-05-03T08:09:24.631Z,3.40
2019-05-03T08:11:54.707Z,3.60
2019-05-03T08:14:25.267Z,3.33
2019-05-03T08:16:54.778Z,3.43
2019-05-03T08:19:26.831Z,3.30
2019-05-03T08:21:56.479Z,4.10
2019-05-03T08:24:25.349Z,2.90
2019-05-03T08:26:55.767Z,3.20
2019-05-03T08:29:25.020Z,3.47
2019-05-03T08:32:17.909Z,3.27
2019-05-03T08:35:11.766Z,3.43
2019-05-03T08:37:55.828Z,3.37
2019-05-03T08:40:26.096Z,3.27
2019-05-03T08:42:55.085Z,3.17
2019-05-03T08:45:25.596Z,3.23
2019-05-03T08:47:55.345Z,3.00
2019-05-03T08:50:25.701Z,3.40
2019-05-03T08:52:55.726Z,3.13
2019-05-03T08:55:25.153Z,3.13
2019-05-03T08:57:55.122Z,3.40
2019-05-03T09:00:25.507Z,2.90
2019-05-03T09:02:54.870Z,3.00
2019-05-03T09:05:24.995Z,3.30
2019-05-03T09:07:54.876Z,3.30
2019-05-03T09:10:31.997Z,3.40
2019-05-03T09:13:14.799Z,3.23
2019-05-03T09:15:44.666Z,3.23
2019-05-03T09:18:16.870Z,3.30
2019-05-03T09:20:44.825Z,2.83
2019-05-03T09:23:14.887Z,3.50
2019-05-03T09:25:45.821Z,3.37
2019-05-03T09:28:15.092Z,2.80
2019-05-03T09:30:44.740Z,3.47
2019-05-03T09:33:15.327Z,3.10
2019-05-03T09:35:45.644Z,3.30
2019-05-03T09:38:15.141Z,2.93
2019-05-03T09:40:45.362Z,2.97
2019-05-03T09:43:15.043Z,3.00
2019-05-03T09:45:45.730Z,3.00
2019-05-03T09:48:15.129Z,3.43
2019-05-03T09:50:45.203Z,3.87
2019-05-03T09:53:15.447Z,3.67
2019-05-03T09:55:44.834Z,3.43
2019-05-03T09:58:15.367Z,3.50
2019-05-03T10:00:44.675Z,3.50
2019-05-03T10:03:13.757Z,4.00
2019-05-03T10:05:42.991Z,3.73
2019-05-03T10:08:11.652Z,3.87
2019-05-03T10:10:57.459Z,3.90
2019-05-03T10:13:27.200Z,3.67
2019-05-03T10:15:56.225Z,4.23
2019-05-03T10:18:25.497Z,4.10
2019-05-03T10:20:56.147Z,3.47
2019-05-03T10:23:40.560Z,3.13
2019-05-03T10:26:09.435Z,3.33
2019-05-03T10:28:38.575Z,4.17
2019-05-03T10:31:07.935Z,2.90
2019-05-03T10:33:42.000Z,2.93
2019-05-03T10:36:10.317Z,2.77
2019-05-03T10:38:38.641Z,3.33
2019-05-03T10:41:07.762Z,2.80
2019-05-03T10:43:36.772Z,3.07
2019-05-03T10:46:05.967Z,2.90
2019-05-03T10:48:35.606Z,2.80
2019-05-03T10:51:04.903Z,3.00
2019-05-03T10:53:42.202Z,3.00
2019-05-03T10:56:23.372Z,3.00
2019-05-03T10:58:55.704Z,2.87
2019-05-03T11:01:33.202Z,2.43
2019-05-03T11:04:02.136Z,2.70
2019-05-03T11:06:30.888Z,3.03
2019-05-03T11:09:01.423Z,2.37
2019-05-03T11:11:30.407Z,2.70
2019-05-03T11:13:59.151Z,2.63
2019-05-03T11:16:28.200Z,2.30
2019-05-03T11:18:56.910Z,2.30
2019-05-03T11:21:30.305Z,2.30
2019-05-03T11:23:55.370Z,2.40
2019-05-03T11:26:25.286Z,2.70
2019-05-03T11:29:00.232Z,2.57
2019-05-03T11:31:44.452Z,2.33
2019-05-03T11:34:15.137Z,2.83
2019-05-03T11:37:05.538Z,2.47
2019-05-03T11:39:34.423Z,2.33
2019-05-03T11:42:04.679Z,1.80
2019-05-03T11:44:39.766Z,1.80
2019-05-03T11:47:08.887Z,1.73
2019-05-03T11:49:37.657Z,2.10
2019-05-03T11:52:06.761Z,1.80
2019-05-03T11:54:36.090Z,1.27
2019-05-03T11:57:09.019Z,1.70
2019-05-03T11:59:37.732Z,3.13
2019-05-03T12:02:31.506Z,1.60
2019-05-03T12:05:01.853Z,1.50
2019-05-03T12:07:39.850Z,1.97
2019-05-03T12:10:17.445Z,1.80
2019-05-03T12:12:37.454Z,2.03
2019-05-03T12:15:06.407Z,2.03
2019-05-03T12:17:50.486Z,2.00
2019-05-03T12:20:10.058Z,1.60
2019-05-03T12:22:39.890Z,2.00
2019-05-03T12:25:10.310Z,1.70
2019-05-03T12:27:39.791Z,1.83
2019-05-03T12:30:08.831Z,1.77
2019-05-03T12:32:37.563Z,1.53
2019-05-03T12:35:06.295Z,1.60
2019-05-03T12:37:35.429Z,1.60
2019-05-03T12:40:05.508Z,1.50
2019-05-03T12:42:35.419Z,1.57
2019-05-03T12:45:04.680Z,1.93
2019-05-03T12:47:34.695Z,1.20
2019-05-03T12:50:05.397Z,1.53
2019-05-03T12:52:35.449Z,2.03
2019-05-03T12:55:05.194Z,1.83
2019-05-03T12:57:34.461Z,1.83
2019-05-03T13:00:25.079Z,2.03
2019-05-03T13:02:57.814Z,1.90
2019-05-03T13:05:26.714Z,2.10
2019-05-03T13:08:15.134Z,2.03
2019-05-03T13:10:45.368Z,1.80
2019-05-03T13:13:14.637Z,1.70
2019-05-03T13:15:43.562Z,2.10
2019-05-03T13:18:11.877Z,2.10
2019-05-03T13:20:40.187Z,2.07
2019-05-03T13:23:08.663Z,2.00
2019-05-03T13:25:36.984Z,2.30
2019-05-03T13:28:05.549Z,2.30
2019-05-03T13:30:34.582Z,1.60
2019-05-03T13:33:05.599Z,1.83
2019-05-03T13:35:35.195Z,1.57
2019-05-03T13:38:04.139Z,1.90
2019-05-03T13:40:32.933Z,2.20
2019-05-03T13:43:03.795Z,2.17
2019-05-03T13:45:31.722Z,1.90
2019-05-03T13:48:00.161Z,1.47
2019-05-03T13:50:29.495Z,1.80
2019-05-03T13:52:58.214Z,2.20
2019-05-03T13:55:27.244Z,2.23
2019-05-03T13:57:56.174Z,2.40
2019-05-03T14:00:24.926Z,2.70
2019-05-03T14:02:53.570Z,2.33
2019-05-03T14:05:22.216Z,2.57
2019-05-03T14:07:51.218Z,2.43
2019-05-03T14:10:19.878Z,2.40
2019-05-03T14:12:48.548Z,2.43
2019-05-03T14:15:17.430Z,2.73
2019-05-03T14:17:46.175Z,2.37
2019-05-03T14:20:20.083Z,2.50
2019-05-03T14:22:49.595Z,2.57
2019-05-03T14:25:18.037Z,2.43
2019-05-03T14:27:46.812Z,2.13
2019-05-03T14:30:15.918Z,2.00
2019-05-03T14:32:45.280Z,2.43
2019-05-03T14:35:16.233Z,2.20
2019-05-03T14:37:45.880Z,2.20
2019-05-03T14:40:14.828Z,2.20
2019-05-03T14:42:44.631Z,2.37
2019-05-03T14:45:15.038Z,2.53
2019-05-03T14:47:44.169Z,2.10
2019-05-03T14:50:14.993Z,2.40
2019-05-03T14:52:45.280Z,2.13
2019-05-03T14:55:25.092Z,2.27
2019-05-03T14:58:01.558Z,1.90
2019-05-03T15:00:40.650Z,1.50
2019-05-03T15:03:12.300Z,1.57
2019-05-03T15:05:40.974Z,1.50
2019-05-03T15:08:09.292Z,1.53
2019-05-03T15:10:37.630Z,1.40
2019-05-03T15:13:06.068Z,2.60
2019-05-03T15:15:34.745Z,2.10
2019-05-03T15:18:05.441Z,3.27
2019-05-03T15:20:34.814Z,2.80
2019-05-03T15:23:05.549Z,2.23
2019-05-03T15:25:34.655Z,2.10
2019-05-03T15:28:05.077Z,1.73
2019-05-03T15:30:35.194Z,1.70
2019-05-03T15:33:05.109Z,1.50
2019-05-03T15:35:35.177Z,1.60
2019-05-03T15:38:05.448Z,1.70
2019-05-03T15:40:34.852Z,1.43
2019-05-03T15:43:21.751Z,1.60
2019-05-03T15:46:00.687Z,1.50
2019-05-03T15:48:31.919Z,2.13
2019-05-03T15:51:00.695Z,1.50
2019-05-03T15:53:29.562Z,1.70
2019-05-03T15:55:58.043Z,1.70
2019-05-03T15:58:26.945Z,1.67
2019-05-03T16:00:55.999Z,1.60
2019-05-03T16:03:25.434Z,1.37
2019-05-03T16:05:55.701Z,1.50
2019-05-03T16:08:24.910Z,1.80
2019-05-03T16:10:54.915Z,1.90
2019-05-03T16:13:25.278Z,1.73
2019-05-03T16:15:55.219Z,1.70
2019-05-03T16:18:24.902Z,1.70
2019-05-03T16:20:54.645Z,2.00
2019-05-03T16:23:25.099Z,1.80
2019-05-03T16:25:54.659Z,1.90
2019-05-03T16:28:42.454Z,2.27
2019-05-03T16:31:14.379Z,2.50
2019-05-03T16:33:43.090Z,2.30
2019-05-03T16:36:11.515Z,1.73
2019-05-03T16:38:39.908Z,1.90
2019-05-03T16:41:08.235Z,2.47
2019-05-03T16:43:36.566Z,1.97
2019-05-03T16:46:05.853Z,2.30
2019-05-03T16:48:35.327Z,2.20
2019-05-03T16:51:04.142Z,2.00
2019-05-03T16:53:32.574Z,2.53
2019-05-03T16:56:03.449Z,2.07
2019-05-03T16:58:31.992Z,1.93
2019-05-03T17:01:00.671Z,2.20
2019-05-03T17:03:39.280Z,2.33
2019-05-03T17:06:21.006Z,2.03
2019-05-03T17:09:14.504Z,2.20
2019-05-03T17:11:43.282Z,2.10
2019-05-03T17:14:11.973Z,2.10
2019-05-03T17:16:40.808Z,2.57
2019-05-03T17:19:09.489Z,1.97
2019-05-03T17:21:38.463Z,2.40
2019-05-03T17:24:07.350Z,2.17
2019-05-03T17:26:36.351Z,1.90
2019-05-03T17:29:04.998Z,2.13
2019-05-03T17:31:35.216Z,2.30
2019-05-03T17:34:05.543Z,2.17
2019-05-03T17:36:34.547Z,1.67
2019-05-03T17:39:08.370Z,2.33
2019-05-03T17:41:58.826Z,2.40
2019-05-03T17:44:32.309Z,1.77
2019-05-03T17:47:01.227Z,2.10
2019-05-03T17:49:30.038Z,2.13
2019-05-03T17:52:20.799Z,2.67
2019-05-03T17:55:08.797Z,1.97
2019-05-03T17:58:05.331Z,2.10
2019-05-03T18:00:58.176Z,2.20
2019-05-03T18:03:28.786Z,2.50
2019-05-03T18:06:04.599Z,2.20
2019-05-03T18:08:45.601Z,1.60
2019-05-03T18:11:17.007Z,1.90
2019-05-03T18:13:46.135Z,2.60
2019-05-03T18:16:14.871Z,2.00
2019-05-03T18:18:45.379Z,2.40
2019-05-03T18:21:15.172Z,2.27
2019-05-03T18:23:45.405Z,2.07
2019-05-03T18:26:14.440Z,1.80
2019-05-03T18:28:44.715Z,1.83
2019-05-03T18:31:14.625Z,2.07
2019-05-03T18:33:44.290Z,2.90
2019-05-03T18:36:14.786Z,3.07
2019-05-03T18:38:44.617Z,2.13
2019-05-03T18:41:14.110Z,1.80
2019-05-03T18:43:50.949Z,2.00
2019-05-03T18:46:26.196Z,1.97
2019-05-03T18:48:55.229Z,3.00
2019-05-03T18:51:25.232Z,1.97
2019-05-03T18:53:54.722Z,1.43
2019-05-03T18:56:25.028Z,1.63
2019-05-03T18:58:54.398Z,6.90
2019-05-03T19:01:25.156Z,2.47
2019-05-03T19:03:56.652Z,2.20
2019-05-03T19:06:25.833Z,1.83
2019-05-03T19:09:12.266Z,1.77
2019-05-03T19:11:49.325Z,1.50
2019-05-03T19:14:19.357Z,1.70
2019-05-03T19:17:05.111Z,1.90
2019-05-03T19:19:37.971Z,2.20
2019-05-03T19:22:07.002Z,2.03
2019-05-03T19:24:36.225Z,1.97
2019-05-03T19:27:07.102Z,1.80
2019-05-03T19:29:36.064Z,1.70
2019-05-03T19:32:05.127Z,1.70
2019-05-03T19:34:45.315Z,1.60
2019-05-03T19:37:05.292Z,1.97
2019-05-03T19:39:34.622Z,1.90
2019-05-03T19:42:03.220Z,3.77
2019-05-03T19:44:31.534Z,2.53
2019-05-03T19:47:00.298Z,2.17
2019-05-03T19:49:29.671Z,2.13
2019-05-03T19:51:58.301Z,2.50
2019-05-03T19:54:26.940Z,2.47
2019-05-03T19:56:55.813Z,1.87
2019-05-03T19:59:43.292Z,3.17
2019-05-03T20:02:24.487Z,4.27
2019-05-03T20:05:11.920Z,2.33
2019-05-03T20:07:58.839Z,2.03
2019-05-03T20:10:27.694Z,2.70
2019-05-03T20:12:56.030Z,3.87
2019-05-03T20:15:24.460Z,2.67
2019-05-03T20:17:59.282Z,3.80
2019-05-03T20:20:22.750Z,2.47
2019-05-03T20:22:51.139Z,2.20
2019-05-03T20:25:20.085Z,2.10
2019-05-03T20:27:48.834Z,2.20
2019-05-03T20:30:17.551Z,1.63
2019-05-03T20:32:45.888Z,2.13
2019-05-03T20:35:18.908Z,2.27
2019-05-03T20:37:44.846Z,2.50
2019-05-03T20:40:15.333Z,2.90
2019-05-03T20:43:09.927Z,5.53
2019-05-03T20:46:06.722Z,1.97
2019-05-03T20:48:35.582Z,1.97
2019-05-03T20:51:07.110Z,1.60
2019-05-03T20:53:35.471Z,1.87
2019-05-03T20:56:05.257Z,2.03
2019-05-03T20:58:35.679Z,1.70
2019-05-03T21:01:05.033Z,3.50
2019-05-03T21:03:33.823Z,4.23
2019-05-03T21:06:04.918Z,2.60
2019-05-03T21:08:34.623Z,4.20
2019-05-03T21:11:05.278Z,4.37
2019-05-03T21:13:41.981Z,2.23
2019-05-03T21:16:27.643Z,2.70
2019-05-03T21:19:21.379Z,2.37
2019-05-03T21:21:59.511Z,2.40
2019-05-03T21:24:35.281Z,2.63
2019-05-03T21:27:05.075Z,2.43
2019-05-03T21:29:36.859Z,2.13
2019-05-03T21:32:05.829Z,2.03
2019-05-03T21:34:34.924Z,2.30
2019-05-03T21:37:03.590Z,2.20
2019-05-03T21:39:32.602Z,2.47
2019-05-03T21:42:01.626Z,2.43
2019-05-03T21:44:35.069Z,2.40
2019-05-03T21:47:31.816Z,2.40
2019-05-03T21:50:01.202Z,1.80
2019-05-03T21:52:29.883Z,2.27
2019-05-03T21:54:58.739Z,2.57
2019-05-03T21:57:27.478Z,2.37
2019-05-03T21:59:56.102Z,2.07
2019-05-03T22:02:24.775Z,2.03
2019-05-03T22:04:53.363Z,1.90
2019-05-03T22:07:22.278Z,2.10
2019-05-03T22:09:51.048Z,2.40
2019-05-03T22:12:19.480Z,2.10
2019-05-03T22:14:59.962Z,1.90
2019-05-03T22:17:56.427Z,2.43
2019-05-03T22:20:37.562Z,1.97
2019-05-03T22:23:15.002Z,2.27
2019-05-03T22:25:46.842Z,2.10
2019-05-03T22:28:16.164Z,1.97
2019-05-03T22:30:45.412Z,2.10
2019-05-03T22:33:14.574Z,2.33
2019-05-03T22:35:44.511Z,2.50
2019-05-03T22:38:13.779Z,2.37
2019-05-03T22:40:44.237Z,2.40
2019-05-03T22:43:14.765Z,2.90
2019-05-03T22:45:45.501Z,2.80
2019-05-03T22:48:14.563Z,3.23
2019-05-03T22:50:44.884Z,2.70
2019-05-03T22:53:14.755Z,2.40
2019-05-03T22:55:45.113Z,2.00
2019-05-03T22:58:15.333Z,2.10
2019-05-03T23:00:44.556Z,2.10
2019-05-03T23:03:14.463Z,1.80
2019-05-03T23:05:45.308Z,2.00
2019-05-03T23:08:14.805Z,1.97
2019-05-03T23:10:45.136Z,2.40
2019-05-03T23:13:15.391Z,2.37
2019-05-03T23:15:45.053Z,2.20
2019-05-03T23:18:13.677Z,2.03
2019-05-03T23:20:52.437Z,2.30
2019-05-03T23:23:46.134Z,2.20
2019-05-03T23:26:14.873Z,1.90
2019-05-03T23:28:44.601Z,2.10
2019-05-03T23:31:14.768Z,2.30
2019-05-03T23:33:45.239Z,1.70
2019-05-03T23:36:15.376Z,1.57
2019-05-03T23:38:45.266Z,1.83
2019-05-03T23:41:15.325Z,1.77
2019-05-03T23:43:45.186Z,1.83
2019-05-03T23:46:15.115Z,1.90
2019-05-03T23:48:44.685Z,1.90
2019-05-03T23:51:34.961Z,2.30
2019-05-03T23:54:05.518Z,1.63
2019-05-03T23:56:35.104Z,1.50
2019-05-03T23:59:05.519Z,1.57
